sensor_id;sensor_type;location;lat;lon;timestamp;temperature;humidity
10883;DHT22;5494;51.796;10.952;2023-10-19T00:02:50;7.60;99.90
10883;DHT22;5494;51.796;10.952;2023-10-19T00:05:20;7.60;99.90
10883;DHT22;5494;51.796;10.952;2023-10-19T00:07:54;7.60;99.90
10883;DHT22;5494;51.796;10.952;2023-10-19T00:10:24;7.60;99.90
10883;DHT22;5494;51.796;10.952;2023-10-19T00:12:56;7.60;99.90
10883;DHT22;5494;51.796;10.952;2023-10-19T00:15:27;7.60;99.90
10883;DHT22;5494;51.796;10.952;2023-10-19T00:17:58;7.60;99.90
10883;DHT22;5494;51.796;10.952;2023-10-19T00:20:32;7.50;99.90
10883;DHT22;5494;51.796;10.952;2023-10-19T00:23:20;8.90;99.90
10883;DHT22;5494;51.796;10.952;2023-10-19T00:26:00;7.50;99.90
10883;DHT22;5494;51.796;10.952;2023-10-19T00:28:36;7.60;99.90
10883;DHT22;5494;51.796;10.952;2023-10-19T00:31:05;7.50;99.90
10883;DHT22;5494;51.796;10.952;2023-10-19T00:33:36;7.50;99.90
10883;DHT22;5494;51.796;10.952;2023-10-19T00:36:06;7.50;99.90
10883;DHT22;5494;51.796;10.952;2023-10-19T00:38:37;7.40;99.90
10883;DHT22;5494;51.796;10.952;2023-10-19T00:41:09;7.30;99.90
10883;DHT22;5494;51.796;10.952;2023-10-19T00:43:47;7.20;99.90
10883;DHT22;5494;51.796;10.952;2023-10-19T00:46:18;7.10;99.90
10883;DHT22;5494;51.796;10.952;2023-10-19T00:48:59;7.10;99.90
10883;DHT22;5494;51.796;10.952;2023-10-19T00:51:35;7.20;99.90
10883;DHT22;5494;51.796;10.952;2023-10-19T00:54:21;7.10;99.90
10883;DHT22;5494;51.796;10.952;2023-10-19T00:56:59;7.00;99.90
10883;DHT22;5494;51.796;10.952;2023-10-19T00:59:35;7.00;99.90
10883;DHT22;5494;51.796;10.952;2023-10-19T01:02:09;7.10;99.90
10883;DHT22;5494;51.796;10.952;2023-10-19T01:04:50;7.20;99.90
10883;DHT22;5494;51.796;10.952;2023-10-19T01:07:23;7.20;99.90
10883;DHT22;5494;51.796;10.952;2023-10-19T01:09:58;7.30;99.90
10883;DHT22;5494;51.796;10.952;2023-10-19T01:12:27;7.30;99.90
10883;DHT22;5494;51.796;10.952;2023-10-19T01:15:08;7.40;99.90
10883;DHT22;5494;51.796;10.952;2023-10-19T01:17:44;8.20;99.90
10883;DHT22;5494;51.796;10.952;2023-10-19T01:20:16;7.40;99.90
10883;DHT22;5494;51.796;10.952;2023-10-19T01:22:57;7.40;99.90
10883;DHT22;5494;51.796;10.952;2023-10-19T01:25:44;7.40;99.90
10883;DHT22;5494;51.796;10.952;2023-10-19T01:28:17;7.40;99.90
10883;DHT22;5494;51.796;10.952;2023-10-19T01:30:46;7.30;99.90
10883;DHT22;5494;51.796;10.952;2023-10-19T01:33:19;7.30;99.90
10883;DHT22;5494;51.796;10.952;2023-10-19T01:35:47;7.30;99.90
10883;DHT22;5494;51.796;10.952;2023-10-19T01:38:34;7.30;99.90
10883;DHT22;5494;51.796;10.952;2023-10-19T01:41:04;7.20;99.90
10883;DHT22;5494;51.796;10.952;2023-10-19T01:43:37;7.20;99.90
10883;DHT22;5494;51.796;10.952;2023-10-19T01:46:07;7.10;99.90
10883;DHT22;5494;51.796;10.952;2023-10-19T01:48:50;7.20;99.90
10883;DHT22;5494;51.796;10.952;2023-10-19T01:51:23;7.20;99.90
10883;DHT22;5494;51.796;10.952;2023-10-19T01:53:53;7.10;99.90
10883;DHT22;5494;51.796;10.952;2023-10-19T01:56:23;7.10;99.90
10883;DHT22;5494;51.796;10.952;2023-10-19T01:58:51;7.10;99.90
10883;DHT22;5494;51.796;10.952;2023-10-19T02:01:22;7.10;99.90
10883;DHT22;5494;51.796;10.952;2023-10-19T02:03:59;7.10;99.90
10883;DHT22;5494;51.796;10.952;2023-10-19T02:06:32;7.00;99.90
10883;DHT22;5494;51.796;10.952;2023-10-19T02:09:06;7.10;99.90
10883;DHT22;5494;51.796;10.952;2023-10-19T02:11:44;7.10;99.90
10883;DHT22;5494;51.796;10.952;2023-10-19T02:14:15;7.10;99.90
10883;DHT22;5494;51.796;10.952;2023-10-19T02:16:47;7.10;99.90
10883;DHT22;5494;51.796;10.952;2023-10-19T02:19:20;7.00;99.90
10883;DHT22;5494;51.796;10.952;2023-10-19T02:21:50;7.00;99.90
10883;DHT22;5494;51.796;10.952;2023-10-19T02:24:20;6.90;99.90
10883;DHT22;5494;51.796;10.952;2023-10-19T02:26:50;7.00;99.90
10883;DHT22;5494;51.796;10.952;2023-10-19T02:29:19;7.00;99.90
10883;DHT22;5494;51.796;10.952;2023-10-19T02:31:46;7.00;99.90
10883;DHT22;5494;51.796;10.952;2023-10-19T02:34:16;6.90;99.90
10883;DHT22;5494;51.796;10.952;2023-10-19T02:36:46;6.80;99.90
10883;DHT22;5494;51.796;10.952;2023-10-19T02:39:15;6.80;99.90
10883;DHT22;5494;51.796;10.952;2023-10-19T02:41:47;6.80;99.90
10883;DHT22;5494;51.796;10.952;2023-10-19T02:44:19;6.80;99.90
10883;DHT22;5494;51.796;10.952;2023-10-19T02:46:50;6.80;99.90
10883;DHT22;5494;51.796;10.952;2023-10-19T02:49:21;6.80;99.90
10883;DHT22;5494;51.796;10.952;2023-10-19T02:51:50;6.80;99.90
10883;DHT22;5494;51.796;10.952;2023-10-19T02:54:22;6.80;99.90
10883;DHT22;5494;51.796;10.952;2023-10-19T02:56:54;6.80;99.90
10883;DHT22;5494;51.796;10.952;2023-10-19T02:59:27;6.80;99.90
10883;DHT22;5494;51.796;10.952;2023-10-19T03:01:57;6.90;99.90
10883;DHT22;5494;51.796;10.952;2023-10-19T03:04:34;6.90;99.90
10883;DHT22;5494;51.796;10.952;2023-10-19T03:07:02;6.90;99.90
10883;DHT22;5494;51.796;10.952;2023-10-19T03:09:31;6.90;99.90
10883;DHT22;5494;51.796;10.952;2023-10-19T03:12:05;6.90;99.90
10883;DHT22;5494;51.796;10.952;2023-10-19T03:14:38;7.00;99.90
10883;DHT22;5494;51.796;10.952;2023-10-19T03:17:05;7.00;99.90
10883;DHT22;5494;51.796;10.952;2023-10-19T03:19:36;7.00;99.90
10883;DHT22;5494;51.796;10.952;2023-10-19T03:22:03;7.00;99.90
10883;DHT22;5494;51.796;10.952;2023-10-19T03:24:33;7.00;99.90
10883;DHT22;5494;51.796;10.952;2023-10-19T03:27:06;7.00;99.90
10883;DHT22;5494;51.796;10.952;2023-10-19T03:29:40;7.00;99.90
10883;DHT22;5494;51.796;10.952;2023-10-19T03:32:13;6.90;99.90
10883;DHT22;5494;51.796;10.952;2023-10-19T03:34:41;6.90;99.90
10883;DHT22;5494;51.796;10.952;2023-10-19T03:37:15;6.90;99.90
10883;DHT22;5494;51.796;10.952;2023-10-19T03:39:46;6.90;99.90
10883;DHT22;5494;51.796;10.952;2023-10-19T03:42:16;6.80;99.90
10883;DHT22;5494;51.796;10.952;2023-10-19T03:44:47;6.80;99.90
10883;DHT22;5494;51.796;10.952;2023-10-19T03:47:21;6.80;99.90
10883;DHT22;5494;51.796;10.952;2023-10-19T03:49:54;6.70;99.90
10883;DHT22;5494;51.796;10.952;2023-10-19T03:52:23;6.70;99.90
10883;DHT22;5494;51.796;10.952;2023-10-19T03:54:57;6.70;99.90
10883;DHT22;5494;51.796;10.952;2023-10-19T03:57:26;6.70;99.90
10883;DHT22;5494;51.796;10.952;2023-10-19T03:59:56;6.70;99.90
10883;DHT22;5494;51.796;10.952;2023-10-19T04:02:25;6.70;99.90
10883;DHT22;5494;51.796;10.952;2023-10-19T04:04:56;6.80;99.90
10883;DHT22;5494;51.796;10.952;2023-10-19T04:07:25;6.70;99.90
10883;DHT22;5494;51.796;10.952;2023-10-19T04:09:54;6.70;99.90
10883;DHT22;5494;51.796;10.952;2023-10-19T04:12:38;6.70;99.90
10883;DHT22;5494;51.796;10.952;2023-10-19T04:15:10;6.70;99.90
10883;DHT22;5494;51.796;10.952;2023-10-19T04:17:42;6.70;99.90
10883;DHT22;5494;51.796;10.952;2023-10-19T04:20:13;6.80;99.90
10883;DHT22;5494;51.796;10.952;2023-10-19T04:22:56;6.70;99.90
10883;DHT22;5494;51.796;10.952;2023-10-19T04:25:32;6.70;99.90
10883;DHT22;5494;51.796;10.952;2023-10-19T04:28:02;6.70;99.90
10883;DHT22;5494;51.796;10.952;2023-10-19T04:30:31;6.70;99.90
10883;DHT22;5494;51.796;10.952;2023-10-19T04:33:04;6.70;99.90
10883;DHT22;5494;51.796;10.952;2023-10-19T04:35:36;6.70;99.90
10883;DHT22;5494;51.796;10.952;2023-10-19T04:38:05;6.80;99.90
10883;DHT22;5494;51.796;10.952;2023-10-19T04:40:34;6.70;99.90
10883;DHT22;5494;51.796;10.952;2023-10-19T04:43:04;6.70;99.90
10883;DHT22;5494;51.796;10.952;2023-10-19T04:45:33;6.70;99.90
10883;DHT22;5494;51.796;10.952;2023-10-19T04:48:01;6.70;99.90
10883;DHT22;5494;51.796;10.952;2023-10-19T04:50:31;6.70;99.90
10883;DHT22;5494;51.796;10.952;2023-10-19T04:52:59;6.70;99.90
10883;DHT22;5494;51.796;10.952;2023-10-19T04:55:29;6.60;99.90
10883;DHT22;5494;51.796;10.952;2023-10-19T04:57:58;6.70;99.90
10883;DHT22;5494;51.796;10.952;2023-10-19T05:00:27;6.70;99.90
10883;DHT22;5494;51.796;10.952;2023-10-19T05:02:55;6.60;99.90
10883;DHT22;5494;51.796;10.952;2023-10-19T05:05:24;6.60;99.90
10883;DHT22;5494;51.796;10.952;2023-10-19T05:07:52;6.60;99.90
10883;DHT22;5494;51.796;10.952;2023-10-19T05:10:20;6.60;99.90
10883;DHT22;5494;51.796;10.952;2023-10-19T05:12:48;6.60;99.90
10883;DHT22;5494;51.796;10.952;2023-10-19T05:15:17;6.60;99.90
10883;DHT22;5494;51.796;10.952;2023-10-19T05:17:46;6.70;99.90
10883;DHT22;5494;51.796;10.952;2023-10-19T05:20:15;6.60;99.90
10883;DHT22;5494;51.796;10.952;2023-10-19T05:22:43;6.70;99.90
10883;DHT22;5494;51.796;10.952;2023-10-19T05:25:11;6.60;99.90
10883;DHT22;5494;51.796;10.952;2023-10-19T05:27:39;6.70;99.90
10883;DHT22;5494;51.796;10.952;2023-10-19T05:30:10;6.70;99.90
10883;DHT22;5494;51.796;10.952;2023-10-19T05:32:38;6.70;99.90
10883;DHT22;5494;51.796;10.952;2023-10-19T05:35:08;6.80;99.90
10883;DHT22;5494;51.796;10.952;2023-10-19T05:37:40;6.70;99.90
10883;DHT22;5494;51.796;10.952;2023-10-19T05:40:10;6.80;99.90
10883;DHT22;5494;51.796;10.952;2023-10-19T05:42:41;6.80;99.90
10883;DHT22;5494;51.796;10.952;2023-10-19T05:45:10;6.80;99.90
10883;DHT22;5494;51.796;10.952;2023-10-19T05:47:39;6.80;99.90
10883;DHT22;5494;51.796;10.952;2023-10-19T05:50:10;6.80;99.90
10883;DHT22;5494;51.796;10.952;2023-10-19T05:52:41;6.80;99.90
10883;DHT22;5494;51.796;10.952;2023-10-19T05:55:10;6.80;99.90
10883;DHT22;5494;51.796;10.952;2023-10-19T05:57:39;6.80;99.90
10883;DHT22;5494;51.796;10.952;2023-10-19T06:00:09;6.90;99.90
10883;DHT22;5494;51.796;10.952;2023-10-19T06:02:43;6.90;99.90
10883;DHT22;5494;51.796;10.952;2023-10-19T06:05:15;6.90;99.90
10883;DHT22;5494;51.796;10.952;2023-10-19T06:07:44;6.90;99.90
10883;DHT22;5494;51.796;10.952;2023-10-19T06:10:15;6.90;99.90
10883;DHT22;5494;51.796;10.952;2023-10-19T06:12:48;6.90;99.90
10883;DHT22;5494;51.796;10.952;2023-10-19T06:15:19;6.90;99.90
10883;DHT22;5494;51.796;10.952;2023-10-19T06:17:50;6.80;99.90
10883;DHT22;5494;51.796;10.952;2023-10-19T06:20:21;6.80;99.90
10883;DHT22;5494;51.796;10.952;2023-10-19T06:22:54;6.80;99.90
10883;DHT22;5494;51.796;10.952;2023-10-19T06:25:27;6.70;99.90
10883;DHT22;5494;51.796;10.952;2023-10-19T06:27:56;6.80;99.90
10883;DHT22;5494;51.796;10.952;2023-10-19T06:30:26;6.80;99.90
10883;DHT22;5494;51.796;10.952;2023-10-19T06:32:56;6.90;99.90
10883;DHT22;5494;51.796;10.952;2023-10-19T06:35:31;6.90;99.90
10883;DHT22;5494;51.796;10.952;2023-10-19T06:38:00;7.00;99.90
10883;DHT22;5494;51.796;10.952;2023-10-19T06:40:30;6.90;99.90
10883;DHT22;5494;51.796;10.952;2023-10-19T06:43:01;7.00;99.90
10883;DHT22;5494;51.796;10.952;2023-10-19T06:45:30;6.90;99.90
10883;DHT22;5494;51.796;10.952;2023-10-19T06:47:58;6.90;99.90
10883;DHT22;5494;51.796;10.952;2023-10-19T06:50:28;6.90;99.90
10883;DHT22;5494;51.796;10.952;2023-10-19T06:52:58;7.00;99.90
10883;DHT22;5494;51.796;10.952;2023-10-19T06:55:26;7.00;99.90
10883;DHT22;5494;51.796;10.952;2023-10-19T06:57:55;7.00;99.90
10883;DHT22;5494;51.796;10.952;2023-10-19T07:00:24;7.00;99.90
10883;DHT22;5494;51.796;10.952;2023-10-19T07:02:55;7.00;99.90
10883;DHT22;5494;51.796;10.952;2023-10-19T07:05:28;7.00;99.90
10883;DHT22;5494;51.796;10.952;2023-10-19T07:07:58;7.00;99.90
10883;DHT22;5494;51.796;10.952;2023-10-19T07:10:28;7.10;99.90
10883;DHT22;5494;51.796;10.952;2023-10-19T07:12:57;7.10;99.90
10883;DHT22;5494;51.796;10.952;2023-10-19T07:15:26;7.00;99.90
10883;DHT22;5494;51.796;10.952;2023-10-19T07:17:56;7.00;99.90
10883;DHT22;5494;51.796;10.952;2023-10-19T07:20:25;7.00;99.90
10883;DHT22;5494;51.796;10.952;2023-10-19T07:22:57;7.00;99.90
10883;DHT22;5494;51.796;10.952;2023-10-19T07:25:30;7.00;99.90
10883;DHT22;5494;51.796;10.952;2023-10-19T07:27:58;7.10;99.90
10883;DHT22;5494;51.796;10.952;2023-10-19T07:30:27;7.00;99.90
10883;DHT22;5494;51.796;10.952;2023-10-19T07:32:57;7.10;99.90
10883;DHT22;5494;51.796;10.952;2023-10-19T07:35:26;7.10;99.90
10883;DHT22;5494;51.796;10.952;2023-10-19T07:38:01;7.10;99.90
10883;DHT22;5494;51.796;10.952;2023-10-19T07:40:31;7.20;99.90
10883;DHT22;5494;51.796;10.952;2023-10-19T07:42:59;7.20;99.90
10883;DHT22;5494;51.796;10.952;2023-10-19T07:45:27;7.20;99.90
10883;DHT22;5494;51.796;10.952;2023-10-19T07:47:58;7.20;99.90
10883;DHT22;5494;51.796;10.952;2023-10-19T07:50:33;7.20;99.90
10883;DHT22;5494;51.796;10.952;2023-10-19T07:53:04;7.20;99.90
10883;DHT22;5494;51.796;10.952;2023-10-19T07:55:32;7.30;99.90
10883;DHT22;5494;51.796;10.952;2023-10-19T07:58:01;7.30;99.90
10883;DHT22;5494;51.796;10.952;2023-10-19T08:00:30;7.40;99.90
10883;DHT22;5494;51.796;10.952;2023-10-19T08:03:01;7.40;99.90
10883;DHT22;5494;51.796;10.952;2023-10-19T08:05:30;7.50;99.90
10883;DHT22;5494;51.796;10.952;2023-10-19T08:07:58;7.60;99.90
10883;DHT22;5494;51.796;10.952;2023-10-19T08:10:29;7.60;99.90
10883;DHT22;5494;51.796;10.952;2023-10-19T08:12:57;7.70;99.90
10883;DHT22;5494;51.796;10.952;2023-10-19T08:15:26;7.60;99.90
10883;DHT22;5494;51.796;10.952;2023-10-19T08:17:57;7.60;99.90
10883;DHT22;5494;51.796;10.952;2023-10-19T08:20:25;7.60;99.90
10883;DHT22;5494;51.796;10.952;2023-10-19T08:22:59;7.60;99.90
10883;DHT22;5494;51.796;10.952;2023-10-19T08:25:31;7.60;99.90
10883;DHT22;5494;51.796;10.952;2023-10-19T08:28:20;7.60;99.90
10883;DHT22;5494;51.796;10.952;2023-10-19T08:30:49;7.60;99.90
10883;DHT22;5494;51.796;10.952;2023-10-19T08:33:25;7.50;99.90
10883;DHT22;5494;51.796;10.952;2023-10-19T08:35:53;7.60;99.90
10883;DHT22;5494;51.796;10.952;2023-10-19T08:38:23;7.60;99.90
10883;DHT22;5494;51.796;10.952;2023-10-19T08:40:53;7.70;99.90
10883;DHT22;5494;51.796;10.952;2023-10-19T08:43:22;7.80;99.90
10883;DHT22;5494;51.796;10.952;2023-10-19T08:45:51;7.90;99.90
10883;DHT22;5494;51.796;10.952;2023-10-19T08:48:20;7.90;99.90
10883;DHT22;5494;51.796;10.952;2023-10-19T08:50:49;7.90;99.90
10883;DHT22;5494;51.796;10.952;2023-10-19T08:53:22;7.90;99.90
10883;DHT22;5494;51.796;10.952;2023-10-19T08:55:54;7.90;99.90
10883;DHT22;5494;51.796;10.952;2023-10-19T08:58:23;8.00;99.90
10883;DHT22;5494;51.796;10.952;2023-10-19T09:00:54;8.10;99.90
10883;DHT22;5494;51.796;10.952;2023-10-19T09:03:23;8.00;99.90
10883;DHT22;5494;51.796;10.952;2023-10-19T09:05:54;8.20;99.90
10883;DHT22;5494;51.796;10.952;2023-10-19T09:08:23;8.20;99.90
10883;DHT22;5494;51.796;10.952;2023-10-19T09:10:53;8.40;99.90
10883;DHT22;5494;51.796;10.952;2023-10-19T09:13:23;8.50;99.90
10883;DHT22;5494;51.796;10.952;2023-10-19T09:15:52;8.60;99.90
10883;DHT22;5494;51.796;10.952;2023-10-19T09:18:24;8.60;99.90
10883;DHT22;5494;51.796;10.952;2023-10-19T09:20:55;8.70;99.90
10883;DHT22;5494;51.796;10.952;2023-10-19T09:23:30;8.70;99.90
10883;DHT22;5494;51.796;10.952;2023-10-19T09:26:01;8.60;99.90
10883;DHT22;5494;51.796;10.952;2023-10-19T09:28:31;8.50;99.90
10883;DHT22;5494;51.796;10.952;2023-10-19T09:31:03;8.50;99.90
10883;DHT22;5494;51.796;10.952;2023-10-19T09:33:33;8.60;99.90
10883;DHT22;5494;51.796;10.952;2023-10-19T09:36:02;8.60;99.90
10883;DHT22;5494;51.796;10.952;2023-10-19T09:38:42;8.70;99.90
10883;DHT22;5494;51.796;10.952;2023-10-19T09:41:14;8.60;99.90
10883;DHT22;5494;51.796;10.952;2023-10-19T09:43:45;8.80;99.90
10883;DHT22;5494;51.796;10.952;2023-10-19T09:46:21;8.80;99.90
10883;DHT22;5494;51.796;10.952;2023-10-19T09:48:51;8.80;99.90
10883;DHT22;5494;51.796;10.952;2023-10-19T09:51:19;8.80;99.90
10883;DHT22;5494;51.796;10.952;2023-10-19T09:53:55;8.90;99.90
10883;DHT22;5494;51.796;10.952;2023-10-19T09:56:34;9.20;99.90
10883;DHT22;5494;51.796;10.952;2023-10-19T09:59:06;9.60;99.90
10883;DHT22;5494;51.796;10.952;2023-10-19T10:02:04;9.80;99.90
10883;DHT22;5494;51.796;10.952;2023-10-19T10:04:35;9.70;99.90
10883;DHT22;5494;51.796;10.952;2023-10-19T10:07:06;9.80;99.90
10883;DHT22;5494;51.796;10.952;2023-10-19T10:09:38;9.70;99.90
10883;DHT22;5494;51.796;10.952;2023-10-19T10:12:17;9.70;99.90
10883;DHT22;5494;51.796;10.952;2023-10-19T10:15:00;9.80;99.90
10883;DHT22;5494;51.796;10.952;2023-10-19T10:17:35;10.10;99.90
10883;DHT22;5494;51.796;10.952;2023-10-19T10:20:30;10.20;99.90
10883;DHT22;5494;51.796;10.952;2023-10-19T10:23:17;10.30;99.90
10883;DHT22;5494;51.796;10.952;2023-10-19T10:25:51;10.30;99.90
10883;DHT22;5494;51.796;10.952;2023-10-19T10:28:22;10.20;99.90
10883;DHT22;5494;51.796;10.952;2023-10-19T10:31:08;10.20;99.90
10883;DHT22;5494;51.796;10.952;2023-10-19T10:33:38;10.50;99.90
10883;DHT22;5494;51.796;10.952;2023-10-19T10:36:07;10.70;99.90
10883;DHT22;5494;51.796;10.952;2023-10-19T10:38:36;10.70;99.90
10883;DHT22;5494;51.796;10.952;2023-10-19T10:41:05;10.60;99.90
10883;DHT22;5494;51.796;10.952;2023-10-19T10:43:51;10.60;99.90
10883;DHT22;5494;51.796;10.952;2023-10-19T10:46:22;10.70;99.90
10883;DHT22;5494;51.796;10.952;2023-10-19T10:48:51;10.90;99.90
10883;DHT22;5494;51.796;10.952;2023-10-19T10:51:21;11.00;99.90
10883;DHT22;5494;51.796;10.952;2023-10-19T10:53:50;11.00;99.90
10883;DHT22;5494;51.796;10.952;2023-10-19T10:56:21;10.90;99.90
10883;DHT22;5494;51.796;10.952;2023-10-19T10:58:52;10.60;99.90
10883;DHT22;5494;51.796;10.952;2023-10-19T11:01:29;10.60;99.90
10883;DHT22;5494;51.796;10.952;2023-10-19T11:04:07;10.70;99.90
10883;DHT22;5494;51.796;10.952;2023-10-19T11:06:48;10.70;99.90
10883;DHT22;5494;51.796;10.952;2023-10-19T11:09:17;10.70;99.90
10883;DHT22;5494;51.796;10.952;2023-10-19T11:11:46;10.60;99.90
10883;DHT22;5494;51.796;10.952;2023-10-19T11:14:17;10.70;99.90
10883;DHT22;5494;51.796;10.952;2023-10-19T11:16:45;10.90;99.90
10883;DHT22;5494;51.796;10.952;2023-10-19T11:19:13;11.00;99.90
10883;DHT22;5494;51.796;10.952;2023-10-19T11:21:54;11.00;99.90
10883;DHT22;5494;51.796;10.952;2023-10-19T11:24:26;10.90;99.90
10883;DHT22;5494;51.796;10.952;2023-10-19T11:26:57;11.10;99.90
10883;DHT22;5494;51.796;10.952;2023-10-19T11:29:26;11.00;99.90
10883;DHT22;5494;51.796;10.952;2023-10-19T11:31:58;11.00;99.90
10883;DHT22;5494;51.796;10.952;2023-10-19T11:34:28;11.00;99.90
10883;DHT22;5494;51.796;10.952;2023-10-19T11:36:58;11.00;99.90
10883;DHT22;5494;51.796;10.952;2023-10-19T11:39:27;11.10;99.90
10883;DHT22;5494;51.796;10.952;2023-10-19T11:41:56;11.10;99.90
10883;DHT22;5494;51.796;10.952;2023-10-19T11:44:25;11.10;99.90
10883;DHT22;5494;51.796;10.952;2023-10-19T11:46:54;11.10;99.90
10883;DHT22;5494;51.796;10.952;2023-10-19T11:49:22;11.10;99.90
10883;DHT22;5494;51.796;10.952;2023-10-19T11:51:53;11.10;99.90
10883;DHT22;5494;51.796;10.952;2023-10-19T11:54:21;11.20;99.90
10883;DHT22;5494;51.796;10.952;2023-10-19T11:56:50;11.00;99.90
10883;DHT22;5494;51.796;10.952;2023-10-19T11:59:19;11.00;99.90
10883;DHT22;5494;51.796;10.952;2023-10-19T12:01:49;11.00;99.90
10883;DHT22;5494;51.796;10.952;2023-10-19T12:04:17;11.00;99.90
10883;DHT22;5494;51.796;10.952;2023-10-19T12:06:46;11.00;99.90
10883;DHT22;5494;51.796;10.952;2023-10-19T12:09:14;11.20;99.90
10883;DHT22;5494;51.796;10.952;2023-10-19T12:11:42;11.30;99.90
10883;DHT22;5494;51.796;10.952;2023-10-19T12:14:14;11.30;99.90
10883;DHT22;5494;51.796;10.952;2023-10-19T12:16:42;11.30;99.90
10883;DHT22;5494;51.796;10.952;2023-10-19T12:19:13;11.30;99.90
10883;DHT22;5494;51.796;10.952;2023-10-19T12:21:45;11.20;99.90
10883;DHT22;5494;51.796;10.952;2023-10-19T12:24:16;11.20;99.90
10883;DHT22;5494;51.796;10.952;2023-10-19T12:26:44;11.20;99.90
10883;DHT22;5494;51.796;10.952;2023-10-19T12:29:13;11.20;99.90
10883;DHT22;5494;51.796;10.952;2023-10-19T12:31:44;11.30;99.90
10883;DHT22;5494;51.796;10.952;2023-10-19T12:34:15;11.40;99.90
10883;DHT22;5494;51.796;10.952;2023-10-19T12:36:43;11.40;99.90
10883;DHT22;5494;51.796;10.952;2023-10-19T12:39:13;11.60;99.90
10883;DHT22;5494;51.796;10.952;2023-10-19T12:42:02;11.70;99.90
10883;DHT22;5494;51.796;10.952;2023-10-19T12:44:31;11.80;99.90
10883;DHT22;5494;51.796;10.952;2023-10-19T12:47:06;11.80;99.90
10883;DHT22;5494;51.796;10.952;2023-10-19T12:49:41;11.60;99.90
10883;DHT22;5494;51.796;10.952;2023-10-19T12:52:11;11.50;99.90
10883;DHT22;5494;51.796;10.952;2023-10-19T12:54:39;11.60;99.90
10883;DHT22;5494;51.796;10.952;2023-10-19T12:57:10;11.50;99.90
10883;DHT22;5494;51.796;10.952;2023-10-19T12:59:39;11.40;99.90
10883;DHT22;5494;51.796;10.952;2023-10-19T13:02:10;11.30;99.90
10883;DHT22;5494;51.796;10.952;2023-10-19T13:04:43;11.20;99.90
10883;DHT22;5494;51.796;10.952;2023-10-19T13:07:13;11.20;99.90
10883;DHT22;5494;51.796;10.952;2023-10-19T13:09:42;11.20;99.90
10883;DHT22;5494;51.796;10.952;2023-10-19T13:12:11;11.20;99.90
10883;DHT22;5494;51.796;10.952;2023-10-19T13:14:39;11.30;99.90
10883;DHT22;5494;51.796;10.952;2023-10-19T13:17:10;11.30;99.90
10883;DHT22;5494;51.796;10.952;2023-10-19T13:19:38;11.30;99.90
10883;DHT22;5494;51.796;10.952;2023-10-19T13:22:09;11.40;99.90
10883;DHT22;5494;51.796;10.952;2023-10-19T13:24:38;11.50;99.90
10883;DHT22;5494;51.796;10.952;2023-10-19T13:27:08;11.60;99.90
10883;DHT22;5494;51.796;10.952;2023-10-19T13:29:37;11.70;99.90
10883;DHT22;5494;51.796;10.952;2023-10-19T13:32:09;11.50;99.90
10883;DHT22;5494;51.796;10.952;2023-10-19T13:34:37;11.40;99.90
10883;DHT22;5494;51.796;10.952;2023-10-19T13:37:08;11.40;99.90
10883;DHT22;5494;51.796;10.952;2023-10-19T13:39:38;11.30;99.90
10883;DHT22;5494;51.796;10.952;2023-10-19T13:42:07;11.30;99.90
10883;DHT22;5494;51.796;10.952;2023-10-19T13:44:36;11.30;99.90
10883;DHT22;5494;51.796;10.952;2023-10-19T13:47:04;11.30;99.90
10883;DHT22;5494;51.796;10.952;2023-10-19T13:49:32;11.30;99.90
10883;DHT22;5494;51.796;10.952;2023-10-19T13:52:00;11.40;99.90
10883;DHT22;5494;51.796;10.952;2023-10-19T13:54:32;11.50;99.90
10883;DHT22;5494;51.796;10.952;2023-10-19T13:57:00;11.70;99.90
10883;DHT22;5494;51.796;10.952;2023-10-19T13:59:28;11.60;99.90
10883;DHT22;5494;51.796;10.952;2023-10-19T14:01:57;11.50;99.90
10883;DHT22;5494;51.796;10.952;2023-10-19T14:04:26;11.40;99.90
10883;DHT22;5494;51.796;10.952;2023-10-19T14:06:54;11.20;99.90
10883;DHT22;5494;51.796;10.952;2023-10-19T14:09:23;10.50;99.90
10883;DHT22;5494;51.796;10.952;2023-10-19T14:11:54;11.10;99.90
10883;DHT22;5494;51.796;10.952;2023-10-19T14:14:22;11.10;99.90
10883;DHT22;5494;51.796;10.952;2023-10-19T14:16:51;11.10;99.90
10883;DHT22;5494;51.796;10.952;2023-10-19T14:19:19;11.10;99.90
10883;DHT22;5494;51.796;10.952;2023-10-19T14:21:47;11.00;99.90
10883;DHT22;5494;51.796;10.952;2023-10-19T14:24:16;10.90;99.90
10883;DHT22;5494;51.796;10.952;2023-10-19T14:26:46;10.80;99.90
10883;DHT22;5494;51.796;10.952;2023-10-19T14:29:15;10.90;99.90
10883;DHT22;5494;51.796;10.952;2023-10-19T14:31:44;10.90;99.90
10883;DHT22;5494;51.796;10.952;2023-10-19T14:34:12;11.00;99.90
10883;DHT22;5494;51.796;10.952;2023-10-19T14:36:40;11.00;99.90
10883;DHT22;5494;51.796;10.952;2023-10-19T14:39:08;10.90;99.90
10883;DHT22;5494;51.796;10.952;2023-10-19T14:41:36;10.80;99.90
10883;DHT22;5494;51.796;10.952;2023-10-19T14:44:05;10.70;99.90
10883;DHT22;5494;51.796;10.952;2023-10-19T14:46:34;10.70;99.90
10883;DHT22;5494;51.796;10.952;2023-10-19T14:49:03;10.70;99.90
10883;DHT22;5494;51.796;10.952;2023-10-19T14:51:31;10.80;99.90
10883;DHT22;5494;51.796;10.952;2023-10-19T14:53:59;11.00;99.90
10883;DHT22;5494;51.796;10.952;2023-10-19T14:56:27;10.90;99.90
10883;DHT22;5494;51.796;10.952;2023-10-19T14:58:55;10.80;99.90
10883;DHT22;5494;51.796;10.952;2023-10-19T15:01:25;10.80;99.90
10883;DHT22;5494;51.796;10.952;2023-10-19T15:03:55;10.80;99.90
10883;DHT22;5494;51.796;10.952;2023-10-19T15:06:23;10.70;99.90
10883;DHT22;5494;51.796;10.952;2023-10-19T15:08:51;10.70;99.90
10883;DHT22;5494;51.796;10.952;2023-10-19T15:11:20;10.70;99.90
10883;DHT22;5494;51.796;10.952;2023-10-19T15:13:48;10.80;99.90
10883;DHT22;5494;51.796;10.952;2023-10-19T15:16:17;10.80;99.90
10883;DHT22;5494;51.796;10.952;2023-10-19T15:18:45;11.00;99.90
10883;DHT22;5494;51.796;10.952;2023-10-19T15:21:16;10.90;99.90
10883;DHT22;5494;51.796;10.952;2023-10-19T15:23:44;10.90;99.90
10883;DHT22;5494;51.796;10.952;2023-10-19T15:26:16;10.90;99.90
10883;DHT22;5494;51.796;10.952;2023-10-19T15:28:45;10.80;99.90
10883;DHT22;5494;51.796;10.952;2023-10-19T15:31:14;10.90;99.90
10883;DHT22;5494;51.796;10.952;2023-10-19T15:33:42;10.90;99.90
10883;DHT22;5494;51.796;10.952;2023-10-19T15:36:11;11.00;99.90
10883;DHT22;5494;51.796;10.952;2023-10-19T15:38:40;10.90;99.90
10883;DHT22;5494;51.796;10.952;2023-10-19T15:41:09;10.90;99.90
10883;DHT22;5494;51.796;10.952;2023-10-19T15:43:39;11.00;99.90
10883;DHT22;5494;51.796;10.952;2023-10-19T15:46:08;10.90;99.90
10883;DHT22;5494;51.796;10.952;2023-10-19T15:48:40;10.90;99.90
10883;DHT22;5494;51.796;10.952;2023-10-19T15:51:08;10.80;99.90
10883;DHT22;5494;51.796;10.952;2023-10-19T15:53:36;10.80;99.90
10883;DHT22;5494;51.796;10.952;2023-10-19T15:56:06;10.70;99.90
10883;DHT22;5494;51.796;10.952;2023-10-19T15:58:34;10.70;99.90
10883;DHT22;5494;51.796;10.952;2023-10-19T16:01:03;10.80;99.90
10883;DHT22;5494;51.796;10.952;2023-10-19T16:03:33;10.80;99.90
10883;DHT22;5494;51.796;10.952;2023-10-19T16:06:03;10.90;99.90